createdAt,value
2017-08-10T00:00:13.942Z,97.40
2017-08-10T00:02:41.646Z,97.70
2017-08-10T00:05:09.311Z,98.10
2017-08-10T00:07:36.978Z,98.60
2017-08-10T00:10:04.639Z,98.10
2017-08-10T00:12:34.991Z,97.60
2017-08-10T00:15:02.787Z,96.80
2017-08-10T00:17:30.469Z,96.30
2017-08-10T00:19:58.254Z,96.60
2017-08-10T00:22:25.889Z,96.60
2017-08-10T00:24:53.510Z,96.60
2017-08-10T00:27:21.156Z,96.60
2017-08-10T00:29:49.028Z,97.20
2017-08-10T00:32:18.531Z,97.70
2017-08-10T00:34:47.024Z,98.00
2017-08-10T00:37:14.682Z,99.00
2017-08-10T00:53:57.327Z,99.90
2017-08-10T00:56:24.919Z,99.90
2017-08-10T00:58:52.544Z,99.90
2017-08-10T01:01:20.180Z,99.90
2017-08-10T01:03:47.840Z,99.90
2017-08-10T01:06:16.330Z,99.90
2017-08-10T01:08:44.024Z,99.90
2017-08-10T01:11:11.685Z,99.90
2017-08-10T01:13:40.058Z,99.90
2017-08-10T01:16:07.865Z,99.90
2017-08-10T01:18:35.511Z,99.90
2017-08-10T01:21:05.146Z,99.90
2017-08-10T01:23:32.863Z,99.90
2017-08-10T01:28:40.504Z,99.90
2017-08-10T01:31:08.116Z,99.90
2017-08-10T01:33:51.567Z,99.90
2017-08-10T01:36:19.210Z,99.90
2017-08-10T01:38:46.843Z,99.90
2017-08-10T01:41:15.443Z,99.90
2017-08-10T01:43:43.108Z,99.90
2017-08-10T01:46:10.747Z,99.90
2017-08-10T01:48:38.737Z,99.90
2017-08-10T01:51:06.415Z,99.90
2017-08-10T01:53:34.120Z,99.90
2017-08-10T01:56:01.792Z,99.90
2017-08-10T01:58:29.440Z,99.90
2017-08-10T02:00:57.550Z,99.60
2017-08-10T02:03:25.280Z,99.70
2017-08-10T02:05:52.934Z,99.80
2017-08-10T02:08:20.530Z,99.70
2017-08-10T02:10:48.197Z,99.60
2017-08-10T02:13:15.863Z,99.90
2017-08-10T02:15:52.458Z,99.70
2017-08-10T02:18:25.424Z,99.90
2017-08-10T02:20:53.061Z,99.80
2017-08-10T02:23:20.712Z,99.80
2017-08-10T02:25:48.552Z,99.60
2017-08-10T02:28:22.953Z,99.70
2017-08-10T02:30:50.623Z,99.60
2017-08-10T02:33:18.274Z,99.80
2017-08-10T02:35:45.965Z,99.90
2017-08-10T02:38:13.613Z,99.90
2017-08-10T02:40:42.142Z,99.90
2017-08-10T02:43:13.442Z,99.90
2017-08-10T02:45:41.116Z,99.90
2017-08-10T02:48:09.226Z,99.80
2017-08-10T02:50:36.843Z,99.80
2017-08-10T02:53:04.505Z,99.90
2017-08-10T02:55:37.513Z,99.70
2017-08-10T02:58:13.136Z,99.60
2017-08-10T03:00:42.449Z,99.60
2017-08-10T03:03:10.128Z,99.50
2017-08-10T03:05:38.079Z,99.40
2017-08-10T03:08:13.229Z,99.50
2017-08-10T03:10:40.889Z,99.50
2017-08-10T03:13:17.414Z,99.40
2017-08-10T03:15:45.129Z,99.50
2017-08-10T03:18:13.945Z,99.50
2017-08-10T03:20:41.714Z,99.60
2017-08-10T03:23:09.403Z,99.60
2017-08-10T03:25:37.063Z,99.60
2017-08-10T03:28:04.798Z,99.70
2017-08-10T03:30:32.477Z,99.90
2017-08-10T03:33:19.421Z,99.80
2017-08-10T03:35:47.052Z,99.90
2017-08-10T03:38:15.696Z,99.90
2017-08-10T03:40:53.890Z,99.90
2017-08-10T03:44:08.753Z,99.90
2017-08-10T03:49:31.474Z,99.90
2017-08-10T03:54:41.341Z,99.60
2017-08-10T03:59:40.917Z,99.50
2017-08-10T04:02:09.203Z,99.50
2017-08-10T04:07:12.238Z,99.80
2017-08-10T04:09:41.660Z,99.80
2017-08-10T04:12:10.928Z,99.90
2017-08-10T04:14:38.589Z,99.90
2017-08-10T04:17:06.211Z,99.90
2017-08-10T04:19:34.953Z,99.90
2017-08-10T04:22:02.696Z,99.80
2017-08-10T04:24:35.676Z,99.60
2017-08-10T04:27:03.426Z,99.60
2017-08-10T04:29:31.870Z,99.50
2017-08-10T04:32:11.996Z,99.30
2017-08-10T04:34:39.699Z,99.30
2017-08-10T04:37:07.362Z,99.10
2017-08-10T04:45:21.394Z,97.50
2017-08-10T04:47:49.564Z,97.40
2017-08-10T04:50:17.245Z,97.90
2017-08-10T04:52:45.234Z,97.40
2017-08-10T04:55:13.403Z,97.10
2017-08-10T05:03:50.541Z,96.50
2017-08-10T05:06:18.185Z,96.90
2017-08-10T05:08:45.784Z,96.90
2017-08-10T05:11:13.468Z,96.60
2017-08-10T05:13:58.096Z,96.60
2017-08-10T05:19:17.463Z,95.80
2017-08-10T05:21:45.133Z,95.30
2017-08-10T05:27:05.762Z,94.50
2017-08-10T05:29:34.338Z,95.00
2017-08-10T05:32:02.009Z,94.60
2017-08-10T05:34:29.690Z,95.10
2017-08-10T05:37:00.448Z,95.50
2017-08-10T05:39:37.202Z,95.40
2017-08-10T05:42:04.868Z,95.50
2017-08-10T05:47:18.372Z,95.80
2017-08-10T05:49:49.142Z,95.70
2017-08-10T05:52:16.826Z,95.60
2017-08-10T05:54:44.495Z,95.90
2017-08-10T06:00:12.997Z,96.00
2017-08-10T06:02:40.686Z,95.70
2017-08-10T06:05:08.352Z,95.70
2017-08-10T06:07:35.964Z,95.40
2017-08-10T06:12:56.947Z,95.80
2017-08-10T06:15:24.636Z,95.40
2017-08-10T06:17:52.631Z,95.40
2017-08-10T06:20:24.100Z,95.20
2017-08-10T06:25:45.196Z,94.60
2017-08-10T06:28:12.862Z,94.40
2017-08-10T06:33:34.418Z,93.60
2017-08-10T06:36:02.948Z,92.90
2017-08-10T06:38:31.582Z,93.30
2017-08-10T06:45:20.970Z,92.70
2017-08-10T06:47:49.613Z,91.50
2017-08-10T06:50:17.971Z,91.20
2017-08-10T06:52:46.525Z,91.70
2017-08-10T06:55:14.350Z,91.90
2017-08-10T06:57:48.395Z,91.90
2017-08-10T07:03:09.003Z,91.40
2017-08-10T07:05:36.890Z,90.50
2017-08-10T07:08:04.526Z,90.20
2017-08-10T07:10:32.147Z,90.40
2017-08-10T07:13:06.778Z,90.50
2017-08-10T07:15:34.395Z,90.70
2017-08-10T07:18:02.050Z,90.90
2017-08-10T07:20:29.708Z,91.20
2017-08-10T07:22:57.336Z,90.90
2017-08-10T07:25:24.981Z,91.40
2017-08-10T07:27:52.618Z,91.60
2017-08-10T07:30:20.155Z,91.70
2017-08-10T07:32:47.750Z,92.10
2017-08-10T07:35:15.368Z,92.70
2017-08-10T07:37:42.897Z,93.50
2017-08-10T07:40:10.401Z,93.40
2017-08-10T07:42:37.992Z,93.60
2017-08-10T07:45:05.557Z,93.50
2017-08-10T07:47:35.021Z,92.90
2017-08-10T07:50:02.575Z,92.80
2017-08-10T07:52:30.275Z,92.30
2017-08-10T07:54:57.823Z,92.40
2017-08-10T07:57:25.345Z,92.30
2017-08-10T07:59:52.936Z,91.50
2017-08-10T08:02:20.517Z,91.00
2017-08-10T08:04:48.130Z,90.60
2017-08-10T08:07:15.730Z,90.70
2017-08-10T08:09:43.457Z,89.70
2017-08-10T08:12:11.185Z,86.80
2017-08-10T08:14:38.718Z,88.30
2017-08-10T08:17:06.252Z,88.50
2017-08-10T08:19:33.860Z,88.70
2017-08-10T08:22:01.413Z,89.90
2017-08-10T08:24:28.963Z,90.10
2017-08-10T08:26:56.563Z,90.30
2017-08-10T08:29:24.150Z,90.80
2017-08-10T08:31:51.609Z,91.70
2017-08-10T08:34:19.196Z,92.10
2017-08-10T08:36:46.747Z,91.40
2017-08-10T08:39:14.473Z,91.20
2017-08-10T08:41:42.030Z,91.20
2017-08-10T08:44:09.540Z,91.90
2017-08-10T08:46:37.074Z,91.90
2017-08-10T08:49:04.704Z,91.50
2017-08-10T08:51:32.375Z,90.50
2017-08-10T08:53:59.916Z,90.40
2017-08-10T08:56:27.500Z,90.60
2017-08-10T08:58:55.046Z,89.70
2017-08-10T09:01:22.591Z,87.50
2017-08-10T09:03:50.211Z,87.70
2017-08-10T09:06:17.758Z,85.80
2017-08-10T09:08:45.258Z,86.50
2017-08-10T09:11:12.829Z,83.80
2017-08-10T09:13:40.429Z,84.70
2017-08-10T09:16:07.971Z,85.80
2017-08-10T09:18:35.674Z,87.20
2017-08-10T09:21:03.240Z,87.50
2017-08-10T09:23:30.780Z,87.00
2017-08-10T09:25:58.901Z,86.70
2017-08-10T09:28:27.572Z,87.60
2017-08-10T09:30:55.099Z,89.10
2017-08-10T09:33:22.856Z,90.00
2017-08-10T09:35:50.518Z,90.10
2017-08-10T09:38:18.073Z,90.80
2017-08-10T09:40:45.684Z,91.30
2017-08-10T09:43:13.227Z,91.30
2017-08-10T09:45:40.766Z,90.70
2017-08-10T09:48:08.352Z,90.40
2017-08-10T09:50:35.897Z,88.60
2017-08-10T09:53:03.405Z,88.10
2017-08-10T09:55:31.184Z,86.90
2017-08-10T09:57:58.745Z,85.90
2017-08-10T10:00:26.296Z,86.90
2017-08-10T10:02:54.288Z,85.60
2017-08-10T10:05:21.838Z,85.20
2017-08-10T10:07:49.407Z,80.80
2017-08-10T10:10:17.189Z,79.70
2017-08-10T10:12:44.935Z,79.10
2017-08-10T10:15:12.613Z,78.30
2017-08-10T10:17:40.174Z,77.90
2017-08-10T10:20:07.881Z,74.80
2017-08-10T10:22:35.461Z,75.60
2017-08-10T10:25:03.203Z,75.20
2017-08-10T10:27:30.709Z,75.00
2017-08-10T10:29:58.242Z,73.20
2017-08-10T10:32:26.355Z,74.00
2017-08-10T10:34:54.691Z,72.10
2017-08-10T10:37:22.276Z,73.10
2017-08-10T10:39:49.873Z,75.10
2017-08-10T10:42:17.422Z,77.20
2017-08-10T10:44:44.981Z,79.30
2017-08-10T10:47:12.560Z,78.90
2017-08-10T10:49:40.125Z,78.60
2017-08-10T10:52:07.675Z,77.30
2017-08-10T10:54:35.404Z,77.30
2017-08-10T10:57:02.985Z,77.20
2017-08-10T10:59:30.650Z,75.70
2017-08-10T11:01:58.229Z,77.10
2017-08-10T11:04:25.773Z,77.80
2017-08-10T11:06:53.359Z,78.10
2017-08-10T11:09:20.980Z,77.60
2017-08-10T11:11:48.528Z,78.50
2017-08-10T11:14:16.063Z,78.30
2017-08-10T11:16:43.671Z,78.80
2017-08-10T11:19:11.287Z,79.30
2017-08-10T11:21:38.804Z,80.10
2017-08-10T11:24:06.533Z,79.00
2017-08-10T11:26:34.099Z,79.80
2017-08-10T11:29:01.642Z,79.60
2017-08-10T11:31:29.219Z,81.10
2017-08-10T11:33:59.010Z,81.40
2017-08-10T11:36:26.795Z,83.00
2017-08-10T11:38:54.568Z,83.70
2017-08-10T11:41:22.178Z,83.00
2017-08-10T11:43:50.235Z,84.60
2017-08-10T11:46:18.027Z,84.80
2017-08-10T11:48:46.499Z,85.50
2017-08-10T11:51:14.078Z,85.70
2017-08-10T11:53:41.783Z,85.60
2017-08-10T11:56:09.376Z,85.30
2017-08-10T11:58:36.980Z,85.30
2017-08-10T12:01:04.638Z,85.40
2017-08-10T12:03:32.248Z,86.30
2017-08-10T12:05:59.904Z,87.90
2017-08-10T12:08:28.786Z,89.90
2017-08-10T12:10:56.366Z,90.10
2017-08-10T12:13:23.913Z,90.50
2017-08-10T12:15:51.683Z,90.50
2017-08-10T12:18:19.227Z,90.60
2017-08-10T12:20:46.783Z,91.10
2017-08-10T12:23:14.395Z,91.30
2017-08-10T12:25:41.948Z,90.70
2017-08-10T12:28:09.568Z,90.00
2017-08-10T12:30:37.135Z,88.10
2017-08-10T12:33:05.279Z,88.60
2017-08-10T12:35:32.858Z,88.00
2017-08-10T12:38:00.594Z,88.10
2017-08-10T12:40:28.170Z,87.20
2017-08-10T12:42:55.757Z,88.00
2017-08-10T12:45:23.832Z,86.80
2017-08-10T12:47:51.443Z,86.30
2017-08-10T12:50:18.961Z,85.60
2017-08-10T12:52:49.325Z,85.10
2017-08-10T12:55:17.888Z,85.40
2017-08-10T12:57:45.440Z,87.00
2017-08-10T13:00:15.343Z,87.10
2017-08-10T13:02:45.156Z,89.30
2017-08-10T13:05:14.333Z,90.10
2017-08-10T13:07:43.911Z,91.10
2017-08-10T13:10:13.028Z,91.20
2017-08-10T13:12:42.585Z,91.10
2017-08-10T13:15:12.645Z,91.10
2017-08-10T13:17:42.692Z,90.90
2017-08-10T13:20:12.190Z,91.10
2017-08-10T13:22:41.534Z,91.10
2017-08-10T13:25:10.006Z,91.10
2017-08-10T13:27:38.408Z,90.70
2017-08-10T13:30:07.952Z,90.90
2017-08-10T13:32:35.655Z,91.00
2017-08-10T13:35:03.180Z,90.90
2017-08-10T13:37:30.782Z,90.60
2017-08-10T13:39:58.357Z,90.20
2017-08-10T13:42:27.025Z,90.20
2017-08-10T13:44:54.812Z,90.20
2017-08-10T13:47:22.379Z,90.20
2017-08-10T13:49:50.763Z,90.30
2017-08-10T13:52:18.392Z,90.10
2017-08-10T13:54:45.947Z,90.20
2017-08-10T13:57:13.498Z,88.60
2017-08-10T13:59:41.270Z,86.20
2017-08-10T14:02:08.812Z,86.60
2017-08-10T14:04:36.425Z,85.90
2017-08-10T14:07:04.177Z,86.00
2017-08-10T14:09:31.751Z,85.90
2017-08-10T14:11:59.301Z,85.20
2017-08-10T14:14:26.860Z,86.70
2017-08-10T14:16:54.411Z,86.90
2017-08-10T14:19:21.960Z,86.80
2017-08-10T14:21:49.749Z,85.80
2017-08-10T14:24:18.535Z,86.00
2017-08-10T14:26:46.066Z,86.20
2017-08-10T14:29:13.841Z,88.00
2017-08-10T14:31:41.446Z,87.90
2017-08-10T14:34:08.991Z,88.80
2017-08-10T14:36:36.573Z,89.20
2017-08-10T14:39:04.103Z,89.20
2017-08-10T14:41:31.663Z,89.10
2017-08-10T14:43:59.398Z,88.50
2017-08-10T14:46:26.972Z,88.10
2017-08-10T14:48:54.522Z,87.80
2017-08-10T14:51:22.070Z,88.50
2017-08-10T14:53:49.619Z,88.00
2017-08-10T14:56:17.174Z,88.30
2017-08-10T14:58:44.785Z,88.10
2017-08-10T15:01:12.905Z,88.40
2017-08-10T15:03:41.997Z,87.90
2017-08-10T15:06:09.806Z,87.20
2017-08-10T15:08:37.408Z,85.60
2017-08-10T15:11:04.999Z,84.90
2017-08-10T15:13:32.614Z,83.20
2017-08-10T15:16:00.155Z,82.20
2017-08-10T15:18:27.713Z,82.80
2017-08-10T15:20:55.278Z,82.40
2017-08-10T15:23:22.845Z,82.40
2017-08-10T15:25:50.417Z,82.40
2017-08-10T15:28:18.329Z,81.80
2017-08-10T15:30:45.891Z,81.60
2017-08-10T15:33:13.479Z,80.50
2017-08-10T15:35:41.333Z,79.50
2017-08-10T15:38:08.896Z,79.00
2017-08-10T15:40:36.474Z,78.30
2017-08-10T15:43:04.288Z,78.10
2017-08-10T15:45:31.796Z,79.20
2017-08-10T15:47:59.583Z,78.20
2017-08-10T15:50:27.557Z,78.40
2017-08-10T15:52:55.166Z,80.00
2017-08-10T15:55:22.774Z,80.40
2017-08-10T15:57:50.424Z,79.40
2017-08-10T16:00:18.012Z,79.30
2017-08-10T16:02:45.611Z,80.00
2017-08-10T16:05:13.237Z,80.10
2017-08-10T16:07:40.799Z,79.10
2017-08-10T16:10:08.325Z,79.90
2017-08-10T16:12:35.909Z,81.00
2017-08-10T16:15:03.492Z,81.90
2017-08-10T16:17:31.051Z,82.60
2017-08-10T16:19:58.696Z,83.60
2017-08-10T16:22:26.221Z,84.60
2017-08-10T16:24:53.854Z,85.10
2017-08-10T16:27:21.589Z,85.30
2017-08-10T16:29:49.280Z,86.20
2017-08-10T16:32:16.988Z,86.70
2017-08-10T16:34:45.186Z,87.60
2017-08-10T16:37:12.794Z,88.20
2017-08-10T16:39:40.360Z,88.30
2017-08-10T16:42:08.099Z,87.90
2017-08-10T16:44:35.680Z,88.50
2017-08-10T16:47:03.222Z,88.70
2017-08-10T16:49:30.974Z,88.80
2017-08-10T16:51:58.526Z,89.80
2017-08-10T16:54:26.062Z,89.40
2017-08-10T16:56:53.710Z,89.50
2017-08-10T16:59:21.234Z,89.60
2017-08-10T17:01:48.843Z,89.90
2017-08-10T17:04:16.822Z,90.10
2017-08-10T17:06:44.403Z,90.10
2017-08-10T17:09:12.767Z,90.30
2017-08-10T17:11:41.445Z,90.40
2017-08-10T17:14:09.040Z,90.50
2017-08-10T17:16:36.622Z,90.70
2017-08-10T17:19:04.216Z,90.90
2017-08-10T17:21:31.794Z,90.90
2017-08-10T17:23:59.382Z,91.10
2017-08-10T17:26:27.387Z,91.20
2017-08-10T17:28:54.930Z,91.30
2017-08-10T17:31:22.517Z,91.50
2017-08-10T17:33:50.115Z,91.70
2017-08-10T17:36:17.679Z,92.00
2017-08-10T17:38:45.311Z,92.00
2017-08-10T17:41:13.251Z,92.30
2017-08-10T17:43:40.873Z,92.50
2017-08-10T17:46:08.421Z,92.60
2017-08-10T17:48:36.790Z,92.70
2017-08-10T17:51:04.341Z,92.80
2017-08-10T17:53:32.658Z,92.80
2017-08-10T17:56:00.388Z,92.80
2017-08-10T17:58:28.353Z,92.80
2017-08-10T18:01:00.083Z,92.80
2017-08-10T18:03:24.854Z,92.90
2017-08-10T18:05:52.535Z,92.90
2017-08-10T18:08:21.213Z,92.90
2017-08-10T18:10:48.986Z,93.00
2017-08-10T18:13:16.556Z,93.10
2017-08-10T18:15:44.422Z,93.30
2017-08-10T18:18:12.164Z,93.40
2017-08-10T18:20:39.858Z,93.60
2017-08-10T18:23:07.643Z,93.60
2017-08-10T18:25:35.350Z,94.00
2017-08-10T18:28:02.930Z,93.90
2017-08-10T18:30:30.513Z,94.00
2017-08-10T18:32:58.183Z,94.10
2017-08-10T18:35:25.778Z,94.10
2017-08-10T18:37:53.378Z,94.10
2017-08-10T18:40:20.971Z,94.20
2017-08-10T18:42:48.495Z,94.10
2017-08-10T18:45:16.121Z,94.10
2017-08-10T18:47:45.018Z,94.20
2017-08-10T18:50:13.050Z,94.30
2017-08-10T18:52:40.761Z,94.40
2017-08-10T18:55:13.695Z,94.50
2017-08-10T18:57:41.536Z,94.50
2017-08-10T19:00:09.703Z,94.60
2017-08-10T19:02:37.501Z,94.70
2017-08-10T19:05:05.236Z,94.80
2017-08-10T19:07:33.750Z,94.90
2017-08-10T19:10:01.411Z,94.90
2017-08-10T19:12:29.062Z,95.00
2017-08-10T19:14:58.765Z,95.10
2017-08-10T19:17:26.410Z,95.20
2017-08-10T19:19:54.533Z,95.20
2017-08-10T19:22:23.813Z,95.30
2017-08-10T19:24:53.154Z,95.30
2017-08-10T19:27:20.766Z,95.40
2017-08-10T19:29:48.340Z,95.60
2017-08-10T19:32:16.126Z,95.80
2017-08-10T19:34:46.269Z,95.60
2017-08-10T19:37:13.857Z,95.70
2017-08-10T19:39:41.505Z,95.70
2017-08-10T19:42:09.146Z,95.80
2017-08-10T19:44:36.786Z,95.80
2017-08-10T19:47:04.425Z,95.90
2017-08-10T19:49:32.058Z,95.80
2017-08-10T19:51:59.644Z,95.80
2017-08-10T19:54:27.251Z,95.80
2017-08-10T19:56:54.779Z,95.90
2017-08-10T19:59:22.402Z,95.80
2017-08-10T20:01:50.028Z,95.90
2017-08-10T20:04:17.592Z,96.00
2017-08-10T20:06:45.802Z,95.90
2017-08-10T20:09:13.403Z,95.90
2017-08-10T20:11:40.962Z,96.00
2017-08-10T20:14:08.536Z,96.10
2017-08-10T20:16:36.190Z,96.20
2017-08-10T20:19:03.741Z,96.40
2017-08-10T20:21:32.268Z,96.40
2017-08-10T20:23:59.829Z,96.50
2017-08-10T20:26:27.391Z,96.60
2017-08-10T20:28:54.941Z,96.50
2017-08-10T20:31:23.149Z,96.50
2017-08-10T20:33:50.748Z,96.40
2017-08-10T20:36:18.314Z,96.50
2017-08-10T20:38:46.088Z,96.40
2017-08-10T20:41:13.672Z,96.50
2017-08-10T20:43:41.234Z,96.60
2017-08-10T20:46:09.330Z,96.50
2017-08-10T20:48:37.735Z,96.50
2017-08-10T20:51:05.298Z,96.40
2017-08-10T20:53:33.141Z,96.30
2017-08-10T20:56:00.702Z,96.40
2017-08-10T20:58:28.309Z,96.50
2017-08-10T21:00:55.927Z,96.50
2017-08-10T21:03:23.492Z,96.50
2017-08-10T21:05:51.907Z,96.50
2017-08-10T21:08:19.498Z,96.50
2017-08-10T21:10:47.129Z,96.40
2017-08-10T21:13:14.681Z,96.40
2017-08-10T21:15:42.321Z,96.40
2017-08-10T21:18:10.313Z,96.30
2017-08-10T21:20:37.918Z,96.20
2017-08-10T21:23:05.563Z,96.20
2017-08-10T21:25:33.151Z,96.00
2017-08-10T21:28:00.762Z,96.00
2017-08-10T21:30:28.357Z,95.90
2017-08-10T21:32:55.882Z,95.80
2017-08-10T21:35:23.410Z,95.70
2017-08-10T21:37:51.293Z,95.50
2017-08-10T21:40:18.871Z,95.40
2017-08-10T21:42:46.438Z,95.30
2017-08-10T21:45:15.082Z,95.40
2017-08-10T21:47:42.671Z,95.30
2017-08-10T21:50:10.298Z,95.10
2017-08-10T21:52:37.942Z,95.10
2017-08-10T21:55:05.498Z,95.10
2017-08-10T21:57:33.016Z,95.50
2017-08-10T22:00:00.618Z,95.60
2017-08-10T22:02:28.154Z,95.80
2017-08-10T22:04:55.656Z,95.80
2017-08-10T22:07:23.355Z,95.90
2017-08-10T22:09:50.953Z,96.00
2017-08-10T22:12:18.459Z,96.20
2017-08-10T22:14:46.204Z,96.00
2017-08-10T22:17:13.778Z,96.10
2017-08-10T22:19:41.288Z,96.00
2017-08-10T22:22:08.993Z,96.20
2017-08-10T22:24:36.579Z,96.00
2017-08-10T22:27:04.104Z,96.10
2017-08-10T22:29:31.677Z,96.20
2017-08-10T22:31:59.307Z,96.30
2017-08-10T22:34:26.853Z,96.30
2017-08-10T22:36:54.810Z,96.10
2017-08-10T22:39:22.310Z,95.90
2017-08-10T22:41:49.871Z,95.80
2017-08-10T22:44:17.454Z,96.00
2017-08-10T22:46:45.015Z,96.20
2017-08-10T22:49:12.533Z,96.00
2017-08-10T22:51:40.113Z,96.10
2017-08-10T22:54:07.637Z,96.20
2017-08-10T22:56:35.161Z,96.10
2017-08-10T22:59:02.893Z,96.00
2017-08-10T23:01:30.434Z,96.00
2017-08-10T23:03:58.010Z,95.90
2017-08-10T23:06:25.550Z,95.80
2017-08-10T23:08:53.115Z,95.90
2017-08-10T23:11:20.674Z,96.00
2017-08-10T23:13:48.266Z,96.00
2017-08-10T23:16:15.807Z,96.10
2017-08-10T23:18:43.333Z,96.50
2017-08-10T23:21:10.885Z,96.20
2017-08-10T23:23:38.471Z,96.20
2017-08-10T23:26:06.055Z,96.50
2017-08-10T23:28:33.596Z,96.50
2017-08-10T23:31:01.136Z,96.50
2017-08-10T23:33:28.682Z,96.40
2017-08-10T23:35:56.280Z,96.40
2017-08-10T23:38:23.780Z,96.50
2017-08-10T23:40:51.297Z,96.60
2017-08-10T23:43:19.039Z,96.70
2017-08-10T23:45:46.602Z,96.90
2017-08-10T23:48:14.152Z,96.90
2017-08-10T23:50:41.726Z,97.00
2017-08-10T23:53:09.282Z,97.10
2017-08-10T23:55:36.779Z,97.10
2017-08-10T23:58:04.362Z,97.20
